sensor_id;sensor_type;location;lat;lon;timestamp;temperature;humidity
6164;DHT22;3114;48.362;10.994;2023-02-07T00:01:06;0.70;99.90
6164;DHT22;3114;48.362;10.994;2023-02-07T00:03:34;0.70;99.90
6164;DHT22;3114;48.362;10.994;2023-02-07T00:06:06;0.60;99.90
6164;DHT22;3114;48.362;10.994;2023-02-07T00:08:33;0.20;99.90
6164;DHT22;3114;48.362;10.994;2023-02-07T00:11:04;0.10;99.90
6164;DHT22;3114;48.362;10.994;2023-02-07T00:13:31;0.20;99.90
6164;DHT22;3114;48.362;10.994;2023-02-07T00:15:58;0.20;99.90
6164;DHT22;3114;48.362;10.994;2023-02-07T00:18:25;0.10;99.90
6164;DHT22;3114;48.362;10.994;2023-02-07T00:20:58;0.20;99.90
6164;DHT22;3114;48.362;10.994;2023-02-07T00:23:25;0.30;99.90
6164;DHT22;3114;48.362;10.994;2023-02-07T00:25:52;0.40;99.90
6164;DHT22;3114;48.362;10.994;2023-02-07T00:28:19;0.40;99.90
6164;DHT22;3114;48.362;10.994;2023-02-07T00:30:46;0.30;99.90
6164;DHT22;3114;48.362;10.994;2023-02-07T00:33:13;0.20;99.90
6164;DHT22;3114;48.362;10.994;2023-02-07T00:35:40;0.20;99.90
6164;DHT22;3114;48.362;10.994;2023-02-07T00:38:08;0.00;99.90
6164;DHT22;3114;48.362;10.994;2023-02-07T00:40:35;0.00;99.90
6164;DHT22;3114;48.362;10.994;2023-02-07T00:43:02;0.10;99.90
6164;DHT22;3114;48.362;10.994;2023-02-07T00:45:29;0.10;99.90
6164;DHT22;3114;48.362;10.994;2023-02-07T00:47:56;0.10;99.90
6164;DHT22;3114;48.362;10.994;2023-02-07T00:50:23;0.10;99.90
6164;DHT22;3114;48.362;10.994;2023-02-07T00:52:50;0.20;99.90
6164;DHT22;3114;48.362;10.994;2023-02-07T00:55:18;0.20;99.90
6164;DHT22;3114;48.362;10.994;2023-02-07T00:57:45;0.00;99.90
6164;DHT22;3114;48.362;10.994;2023-02-07T01:00:12;0.10;99.90
6164;DHT22;3114;48.362;10.994;2023-02-07T01:02:39;0.10;99.90
6164;DHT22;3114;48.362;10.994;2023-02-07T01:05:07;0.10;99.90
6164;DHT22;3114;48.362;10.994;2023-02-07T01:07:34;0.00;99.90
6164;DHT22;3114;48.362;10.994;2023-02-07T01:10:01;0.00;99.90
6164;DHT22;3114;48.362;10.994;2023-02-07T01:12:29;0.10;99.90
6164;DHT22;3114;48.362;10.994;2023-02-07T01:14:57;0.10;99.90
6164;DHT22;3114;48.362;10.994;2023-02-07T01:17:24;0.10;99.90
6164;DHT22;3114;48.362;10.994;2023-02-07T01:19:55;0.20;99.90
6164;DHT22;3114;48.362;10.994;2023-02-07T01:22:23;0.00;99.90
6164;DHT22;3114;48.362;10.994;2023-02-07T01:24:51;0.10;99.90
6164;DHT22;3114;48.362;10.994;2023-02-07T01:27:19;0.20;99.90
6164;DHT22;3114;48.362;10.994;2023-02-07T01:29:47;0.00;99.90
6164;DHT22;3114;48.362;10.994;2023-02-07T01:32:14;0.10;99.90
6164;DHT22;3114;48.362;10.994;2023-02-07T01:34:41;0.10;99.90
6164;DHT22;3114;48.362;10.994;2023-02-07T01:37:08;0.80;99.90
6164;DHT22;3114;48.362;10.994;2023-02-07T01:39:35;0.00;99.90
6164;DHT22;3114;48.362;10.994;2023-02-07T01:42:02;0.00;99.90
6164;DHT22;3114;48.362;10.994;2023-02-07T01:44:59;0.10;99.90
6164;DHT22;3114;48.362;10.994;2023-02-07T01:47:27;0.10;99.90
6164;DHT22;3114;48.362;10.994;2023-02-07T01:49:56;0.10;99.90
6164;DHT22;3114;48.362;10.994;2023-02-07T01:52:27;0.00;99.90
6164;DHT22;3114;48.362;10.994;2023-02-07T01:54:58;-0.10;99.90
6164;DHT22;3114;48.362;10.994;2023-02-07T01:57:26;0.00;99.90
6164;DHT22;3114;48.362;10.994;2023-02-07T01:59:55;0.00;99.90
6164;DHT22;3114;48.362;10.994;2023-02-07T02:02:26;0.00;99.90
6164;DHT22;3114;48.362;10.994;2023-02-07T02:04:57;0.10;99.90
6164;DHT22;3114;48.362;10.994;2023-02-07T02:07:25;-0.20;99.90
6164;DHT22;3114;48.362;10.994;2023-02-07T02:09:52;-0.10;99.90
6164;DHT22;3114;48.362;10.994;2023-02-07T02:12:28;0.00;99.90
6164;DHT22;3114;48.362;10.994;2023-02-07T02:15:09;-0.10;99.90
6164;DHT22;3114;48.362;10.994;2023-02-07T02:17:51;-0.10;99.90
6164;DHT22;3114;48.362;10.994;2023-02-07T02:20:50;-0.20;99.90
6164;DHT22;3114;48.362;10.994;2023-02-07T02:23:27;-0.20;99.90
6164;DHT22;3114;48.362;10.994;2023-02-07T02:32:37;-0.20;99.90
6164;DHT22;3114;48.362;10.994;2023-02-07T02:35:10;0.00;99.90
6164;DHT22;3114;48.362;10.994;2023-02-07T02:37:46;-0.10;99.90
6164;DHT22;3114;48.362;10.994;2023-02-07T02:40:21;0.00;99.90
6164;DHT22;3114;48.362;10.994;2023-02-07T02:42:54;0.10;99.90
6164;DHT22;3114;48.362;10.994;2023-02-07T02:45:26;0.00;99.90
6164;DHT22;3114;48.362;10.994;2023-02-07T02:47:56;0.00;99.90
6164;DHT22;3114;48.362;10.994;2023-02-07T02:50:26;-0.20;99.90
6164;DHT22;3114;48.362;10.994;2023-02-07T02:52:53;-0.10;99.90
6164;DHT22;3114;48.362;10.994;2023-02-07T02:55:39;-0.20;99.90
6164;DHT22;3114;48.362;10.994;2023-02-07T02:58:17;-0.30;99.90
6164;DHT22;3114;48.362;10.994;2023-02-07T03:00:59;-0.20;99.90
6164;DHT22;3114;48.362;10.994;2023-02-07T03:03:42;-0.30;99.90
6164;DHT22;3114;48.362;10.994;2023-02-07T03:06:20;-0.20;99.90
6164;DHT22;3114;48.362;10.994;2023-02-07T03:08:56;0.20;99.90
6164;DHT22;3114;48.362;10.994;2023-02-07T03:11:25;-1.00;99.90
6164;DHT22;3114;48.362;10.994;2023-02-07T03:13:59;-0.80;99.90
6164;DHT22;3114;48.362;10.994;2023-02-07T03:16:32;-1.10;99.90
6164;DHT22;3114;48.362;10.994;2023-02-07T03:19:03;-1.10;99.90
6164;DHT22;3114;48.362;10.994;2023-02-07T03:21:35;-1.10;99.90
6164;DHT22;3114;48.362;10.994;2023-02-07T03:24:07;-0.90;99.90
6164;DHT22;3114;48.362;10.994;2023-02-07T03:26:35;-0.80;99.90
6164;DHT22;3114;48.362;10.994;2023-02-07T03:29:04;-0.70;99.90
6164;DHT22;3114;48.362;10.994;2023-02-07T03:31:33;-0.70;99.90
6164;DHT22;3114;48.362;10.994;2023-02-07T03:34:07;-0.50;99.90
6164;DHT22;3114;48.362;10.994;2023-02-07T03:36:39;-0.50;99.90
6164;DHT22;3114;48.362;10.994;2023-02-07T03:39:08;-0.60;99.90
6164;DHT22;3114;48.362;10.994;2023-02-07T03:41:41;-1.00;99.90
6164;DHT22;3114;48.362;10.994;2023-02-07T03:44:11;-1.00;99.90
6164;DHT22;3114;48.362;10.994;2023-02-07T03:46:40;-1.00;99.90
6164;DHT22;3114;48.362;10.994;2023-02-07T03:49:08;-0.90;99.90
6164;DHT22;3114;48.362;10.994;2023-02-07T03:51:36;-0.90;99.90
6164;DHT22;3114;48.362;10.994;2023-02-07T03:54:03;-1.30;99.90
6164;DHT22;3114;48.362;10.994;2023-02-07T03:56:30;-1.30;99.90
6164;DHT22;3114;48.362;10.994;2023-02-07T03:58:57;-1.20;99.90
6164;DHT22;3114;48.362;10.994;2023-02-07T04:01:24;-1.20;99.90
6164;DHT22;3114;48.362;10.994;2023-02-07T04:03:50;-1.20;99.90
6164;DHT22;3114;48.362;10.994;2023-02-07T04:06:19;-1.00;99.90
6164;DHT22;3114;48.362;10.994;2023-02-07T04:08:46;-1.00;99.90
6164;DHT22;3114;48.362;10.994;2023-02-07T04:11:13;-1.10;99.90
6164;DHT22;3114;48.362;10.994;2023-02-07T04:13:40;-1.10;99.90
6164;DHT22;3114;48.362;10.994;2023-02-07T04:16:07;-1.10;99.90
6164;DHT22;3114;48.362;10.994;2023-02-07T04:18:33;-1.00;99.90
6164;DHT22;3114;48.362;10.994;2023-02-07T04:21:01;-0.90;99.90
6164;DHT22;3114;48.362;10.994;2023-02-07T04:23:29;-0.70;99.90
6164;DHT22;3114;48.362;10.994;2023-02-07T04:25:56;-0.70;99.90
6164;DHT22;3114;48.362;10.994;2023-02-07T04:28:23;-0.60;99.90
6164;DHT22;3114;48.362;10.994;2023-02-07T04:30:50;-0.70;99.90
6164;DHT22;3114;48.362;10.994;2023-02-07T04:33:17;-0.60;99.90
6164;DHT22;3114;48.362;10.994;2023-02-07T04:35:45;-0.50;99.90
6164;DHT22;3114;48.362;10.994;2023-02-07T04:38:12;-0.70;99.90
6164;DHT22;3114;48.362;10.994;2023-02-07T04:40:40;-0.60;99.90
6164;DHT22;3114;48.362;10.994;2023-02-07T04:43:07;-0.60;99.90
6164;DHT22;3114;48.362;10.994;2023-02-07T04:45:34;-0.60;99.90
6164;DHT22;3114;48.362;10.994;2023-02-07T04:48:01;-0.40;99.90
6164;DHT22;3114;48.362;10.994;2023-02-07T04:50:28;-0.40;99.90
6164;DHT22;3114;48.362;10.994;2023-02-07T04:52:55;-0.50;99.90
6164;DHT22;3114;48.362;10.994;2023-02-07T04:55:22;-0.50;99.90
6164;DHT22;3114;48.362;10.994;2023-02-07T04:57:50;-0.50;99.90
6164;DHT22;3114;48.362;10.994;2023-02-07T05:00:17;-0.60;99.90
6164;DHT22;3114;48.362;10.994;2023-02-07T05:02:44;-0.60;99.90
6164;DHT22;3114;48.362;10.994;2023-02-07T05:05:11;-0.50;99.90
6164;DHT22;3114;48.362;10.994;2023-02-07T05:07:38;-0.50;99.90
6164;DHT22;3114;48.362;10.994;2023-02-07T05:10:05;-0.50;99.90
6164;DHT22;3114;48.362;10.994;2023-02-07T05:12:32;-0.40;99.90
6164;DHT22;3114;48.362;10.994;2023-02-07T05:15:01;-0.50;99.90
6164;DHT22;3114;48.362;10.994;2023-02-07T05:17:27;-0.50;99.90
6164;DHT22;3114;48.362;10.994;2023-02-07T05:19:55;-0.40;99.90
6164;DHT22;3114;48.362;10.994;2023-02-07T05:22:21;-0.40;99.90
6164;DHT22;3114;48.362;10.994;2023-02-07T05:24:48;-0.50;99.90
6164;DHT22;3114;48.362;10.994;2023-02-07T05:27:15;-0.60;99.90
6164;DHT22;3114;48.362;10.994;2023-02-07T05:29:42;-0.70;99.90
6164;DHT22;3114;48.362;10.994;2023-02-07T05:32:12;-0.60;99.90
6164;DHT22;3114;48.362;10.994;2023-02-07T05:34:56;-0.50;99.90
6164;DHT22;3114;48.362;10.994;2023-02-07T05:37:23;-0.40;99.90
6164;DHT22;3114;48.362;10.994;2023-02-07T05:39:50;-0.60;99.90
6164;DHT22;3114;48.362;10.994;2023-02-07T05:42:17;-0.90;99.90
6164;DHT22;3114;48.362;10.994;2023-02-07T05:44:45;-0.80;99.90
6164;DHT22;3114;48.362;10.994;2023-02-07T05:47:13;-0.70;99.90
6164;DHT22;3114;48.362;10.994;2023-02-07T05:49:40;-0.70;99.90
6164;DHT22;3114;48.362;10.994;2023-02-07T05:52:08;-1.00;99.90
6164;DHT22;3114;48.362;10.994;2023-02-07T05:54:34;-1.00;99.90
6164;DHT22;3114;48.362;10.994;2023-02-07T05:57:01;-1.10;99.90
6164;DHT22;3114;48.362;10.994;2023-02-07T05:59:28;-1.00;99.90
6164;DHT22;3114;48.362;10.994;2023-02-07T06:01:55;-0.90;99.90
6164;DHT22;3114;48.362;10.994;2023-02-07T06:04:24;-1.10;99.90
6164;DHT22;3114;48.362;10.994;2023-02-07T06:06:50;-1.20;99.90
6164;DHT22;3114;48.362;10.994;2023-02-07T06:09:18;-1.10;99.90
6164;DHT22;3114;48.362;10.994;2023-02-07T06:11:46;-1.10;99.90
6164;DHT22;3114;48.362;10.994;2023-02-07T06:14:13;-1.10;99.90
6164;DHT22;3114;48.362;10.994;2023-02-07T06:16:39;-1.00;99.90
6164;DHT22;3114;48.362;10.994;2023-02-07T06:19:06;-1.40;99.90
6164;DHT22;3114;48.362;10.994;2023-02-07T06:21:34;-1.50;99.90
6164;DHT22;3114;48.362;10.994;2023-02-07T06:24:01;-1.40;99.90
6164;DHT22;3114;48.362;10.994;2023-02-07T06:26:29;-1.30;99.90
6164;DHT22;3114;48.362;10.994;2023-02-07T06:28:55;-1.20;99.90
6164;DHT22;3114;48.362;10.994;2023-02-07T06:31:22;-1.10;99.90
6164;DHT22;3114;48.362;10.994;2023-02-07T06:33:49;-1.00;99.90
6164;DHT22;3114;48.362;10.994;2023-02-07T06:36:16;-0.80;99.90
6164;DHT22;3114;48.362;10.994;2023-02-07T06:38:45;-0.80;99.90
6164;DHT22;3114;48.362;10.994;2023-02-07T06:41:13;-0.80;99.90
6164;DHT22;3114;48.362;10.994;2023-02-07T06:43:40;-0.80;99.90
6164;DHT22;3114;48.362;10.994;2023-02-07T06:46:07;-0.90;99.90
6164;DHT22;3114;48.362;10.994;2023-02-07T06:48:34;-0.90;99.90
6164;DHT22;3114;48.362;10.994;2023-02-07T06:51:01;-0.90;99.90
6164;DHT22;3114;48.362;10.994;2023-02-07T06:53:28;-1.00;99.90
6164;DHT22;3114;48.362;10.994;2023-02-07T06:55:56;-1.20;99.90
6164;DHT22;3114;48.362;10.994;2023-02-07T06:58:23;-1.30;99.90
6164;DHT22;3114;48.362;10.994;2023-02-07T07:00:50;-1.30;99.90
6164;DHT22;3114;48.362;10.994;2023-02-07T07:03:17;-1.40;99.90
6164;DHT22;3114;48.362;10.994;2023-02-07T07:05:44;-1.40;99.90
6164;DHT22;3114;48.362;10.994;2023-02-07T07:08:11;-1.30;99.90
6164;DHT22;3114;48.362;10.994;2023-02-07T07:10:42;-1.40;99.90
6164;DHT22;3114;48.362;10.994;2023-02-07T07:13:11;-1.30;99.90
6164;DHT22;3114;48.362;10.994;2023-02-07T07:15:37;-1.20;99.90
6164;DHT22;3114;48.362;10.994;2023-02-07T07:18:04;-1.30;99.90
6164;DHT22;3114;48.362;10.994;2023-02-07T07:20:31;-1.20;99.90
6164;DHT22;3114;48.362;10.994;2023-02-07T07:22:58;-1.10;99.90
6164;DHT22;3114;48.362;10.994;2023-02-07T07:25:25;-1.30;99.90
6164;DHT22;3114;48.362;10.994;2023-02-07T07:27:52;-1.20;99.90
6164;DHT22;3114;48.362;10.994;2023-02-07T07:30:20;-1.40;99.90
6164;DHT22;3114;48.362;10.994;2023-02-07T07:32:47;-1.20;99.90
6164;DHT22;3114;48.362;10.994;2023-02-07T07:35:14;-1.20;99.90
6164;DHT22;3114;48.362;10.994;2023-02-07T07:37:41;-1.10;99.90
6164;DHT22;3114;48.362;10.994;2023-02-07T07:40:09;-1.20;99.90
6164;DHT22;3114;48.362;10.994;2023-02-07T07:42:36;-1.10;99.90
6164;DHT22;3114;48.362;10.994;2023-02-07T07:45:04;-1.00;99.90
6164;DHT22;3114;48.362;10.994;2023-02-07T07:47:32;-0.90;99.90
6164;DHT22;3114;48.362;10.994;2023-02-07T07:49:59;-1.00;99.90
6164;DHT22;3114;48.362;10.994;2023-02-07T07:52:26;-1.30;99.90
6164;DHT22;3114;48.362;10.994;2023-02-07T07:54:56;-1.30;99.90
6164;DHT22;3114;48.362;10.994;2023-02-07T07:57:23;-1.20;99.90
6164;DHT22;3114;48.362;10.994;2023-02-07T07:59:52;-1.20;99.90
6164;DHT22;3114;48.362;10.994;2023-02-07T08:02:19;-1.20;99.90
6164;DHT22;3114;48.362;10.994;2023-02-07T08:04:48;-1.20;99.90
6164;DHT22;3114;48.362;10.994;2023-02-07T08:07:16;-1.00;99.90
6164;DHT22;3114;48.362;10.994;2023-02-07T08:09:43;-0.80;99.90
6164;DHT22;3114;48.362;10.994;2023-02-07T08:12:10;-0.80;99.90
6164;DHT22;3114;48.362;10.994;2023-02-07T08:14:37;-1.00;99.90
6164;DHT22;3114;48.362;10.994;2023-02-07T08:17:04;-0.80;99.90
6164;DHT22;3114;48.362;10.994;2023-02-07T08:19:30;-0.60;99.90
6164;DHT22;3114;48.362;10.994;2023-02-07T08:21:59;-0.80;99.90
6164;DHT22;3114;48.362;10.994;2023-02-07T08:24:26;-0.70;99.90
6164;DHT22;3114;48.362;10.994;2023-02-07T08:26:53;-0.70;99.90
6164;DHT22;3114;48.362;10.994;2023-02-07T08:29:20;-0.70;99.90
6164;DHT22;3114;48.362;10.994;2023-02-07T08:31:47;-1.00;99.90
6164;DHT22;3114;48.362;10.994;2023-02-07T08:34:14;-0.90;99.90
6164;DHT22;3114;48.362;10.994;2023-02-07T08:36:40;-0.70;99.90
6164;DHT22;3114;48.362;10.994;2023-02-07T08:39:09;-0.60;99.90
6164;DHT22;3114;48.362;10.994;2023-02-07T08:41:36;-0.50;99.90
6164;DHT22;3114;48.362;10.994;2023-02-07T08:44:02;-0.50;99.90
6164;DHT22;3114;48.362;10.994;2023-02-07T08:46:29;-0.40;99.90
6164;DHT22;3114;48.362;10.994;2023-02-07T08:48:56;-0.50;99.90
6164;DHT22;3114;48.362;10.994;2023-02-07T08:51:23;-0.50;99.90
6164;DHT22;3114;48.362;10.994;2023-02-07T08:53:51;-0.30;99.90
6164;DHT22;3114;48.362;10.994;2023-02-07T08:56:20;-0.20;99.90
6164;DHT22;3114;48.362;10.994;2023-02-07T08:58:47;-0.40;99.90
6164;DHT22;3114;48.362;10.994;2023-02-07T09:01:14;-0.30;99.90
6164;DHT22;3114;48.362;10.994;2023-02-07T09:03:41;-0.20;99.90
6164;DHT22;3114;48.362;10.994;2023-02-07T09:06:08;-0.10;99.90
6164;DHT22;3114;48.362;10.994;2023-02-07T09:08:35;-0.20;99.90
6164;DHT22;3114;48.362;10.994;2023-02-07T09:11:02;-0.10;99.90
6164;DHT22;3114;48.362;10.994;2023-02-07T09:13:31;0.00;99.90
6164;DHT22;3114;48.362;10.994;2023-02-07T09:15:58;0.10;99.90
6164;DHT22;3114;48.362;10.994;2023-02-07T09:18:25;-0.20;99.90
6164;DHT22;3114;48.362;10.994;2023-02-07T09:20:52;-0.20;99.90
6164;DHT22;3114;48.362;10.994;2023-02-07T09:23:19;-0.10;99.90
6164;DHT22;3114;48.362;10.994;2023-02-07T09:25:48;0.10;99.90
6164;DHT22;3114;48.362;10.994;2023-02-07T09:28:15;0.30;99.90
6164;DHT22;3114;48.362;10.994;2023-02-07T09:30:45;0.30;99.90
6164;DHT22;3114;48.362;10.994;2023-02-07T09:33:13;0.30;99.90
6164;DHT22;3114;48.362;10.994;2023-02-07T09:35:41;0.00;99.90
6164;DHT22;3114;48.362;10.994;2023-02-07T09:38:12;0.10;99.90
6164;DHT22;3114;48.362;10.994;2023-02-07T09:40:40;0.20;99.90
6164;DHT22;3114;48.362;10.994;2023-02-07T09:43:13;0.00;99.90
6164;DHT22;3114;48.362;10.994;2023-02-07T09:45:47;0.10;99.90
6164;DHT22;3114;48.362;10.994;2023-02-07T09:48:20;0.20;99.90
6164;DHT22;3114;48.362;10.994;2023-02-07T09:50:51;0.20;99.90
6164;DHT22;3114;48.362;10.994;2023-02-07T09:53:24;0.40;99.90
6164;DHT22;3114;48.362;10.994;2023-02-07T09:55:54;0.40;99.90
6164;DHT22;3114;48.362;10.994;2023-02-07T09:58:29;0.40;99.90
6164;DHT22;3114;48.362;10.994;2023-02-07T10:01:01;0.40;99.90
6164;DHT22;3114;48.362;10.994;2023-02-07T10:03:30;0.40;99.90
6164;DHT22;3114;48.362;10.994;2023-02-07T10:06:04;0.50;99.90
6164;DHT22;3114;48.362;10.994;2023-02-07T10:08:34;0.60;99.90
6164;DHT22;3114;48.362;10.994;2023-02-07T10:11:10;0.50;99.90
6164;DHT22;3114;48.362;10.994;2023-02-07T10:13:50;0.70;99.90
6164;DHT22;3114;48.362;10.994;2023-02-07T10:16:35;0.80;99.90
6164;DHT22;3114;48.362;10.994;2023-02-07T10:19:13;0.80;99.90
6164;DHT22;3114;48.362;10.994;2023-02-07T10:21:49;0.80;99.90
6164;DHT22;3114;48.362;10.994;2023-02-07T10:24:48;0.80;99.90
6164;DHT22;3114;48.362;10.994;2023-02-07T10:27:23;0.70;99.90
6164;DHT22;3114;48.362;10.994;2023-02-07T10:29:54;1.00;99.90
6164;DHT22;3114;48.362;10.994;2023-02-07T10:32:29;0.90;99.90
6164;DHT22;3114;48.362;10.994;2023-02-07T10:35:00;1.00;99.90
6164;DHT22;3114;48.362;10.994;2023-02-07T10:37:30;1.20;99.90
6164;DHT22;3114;48.362;10.994;2023-02-07T10:40:03;1.20;99.90
6164;DHT22;3114;48.362;10.994;2023-02-07T10:42:33;1.10;99.90
6164;DHT22;3114;48.362;10.994;2023-02-07T10:45:01;1.40;99.90
6164;DHT22;3114;48.362;10.994;2023-02-07T10:47:35;1.10;99.90
6164;DHT22;3114;48.362;10.994;2023-02-07T10:50:07;1.20;99.90
6164;DHT22;3114;48.362;10.994;2023-02-07T10:52:36;1.30;99.90
6164;DHT22;3114;48.362;10.994;2023-02-07T10:55:07;1.10;99.90
6164;DHT22;3114;48.362;10.994;2023-02-07T10:57:35;1.20;99.90
6164;DHT22;3114;48.362;10.994;2023-02-07T11:00:10;1.30;99.90
6164;DHT22;3114;48.362;10.994;2023-02-07T11:02:48;1.20;99.90
6164;DHT22;3114;48.362;10.994;2023-02-07T11:05:39;1.30;99.90
6164;DHT22;3114;48.362;10.994;2023-02-07T11:08:18;1.20;99.90
6164;DHT22;3114;48.362;10.994;2023-02-07T11:10:48;1.20;99.90
6164;DHT22;3114;48.362;10.994;2023-02-07T11:13:17;1.30;99.90
6164;DHT22;3114;48.362;10.994;2023-02-07T11:15:51;1.50;99.90
6164;DHT22;3114;48.362;10.994;2023-02-07T11:18:45;1.60;99.90
6164;DHT22;3114;48.362;10.994;2023-02-07T11:21:27;1.70;99.90
6164;DHT22;3114;48.362;10.994;2023-02-07T11:23:58;1.60;99.90
6164;DHT22;3114;48.362;10.994;2023-02-07T11:26:26;1.50;99.90
6164;DHT22;3114;48.362;10.994;2023-02-07T11:29:02;1.60;99.90
6164;DHT22;3114;48.362;10.994;2023-02-07T11:31:34;1.50;99.90
6164;DHT22;3114;48.362;10.994;2023-02-07T11:34:28;1.40;99.90
6164;DHT22;3114;48.362;10.994;2023-02-07T11:37:08;1.60;99.90
6164;DHT22;3114;48.362;10.994;2023-02-07T11:39:36;1.70;99.90
6164;DHT22;3114;48.362;10.994;2023-02-07T11:42:12;1.60;99.90
6164;DHT22;3114;48.362;10.994;2023-02-07T11:44:41;1.50;99.90
6164;DHT22;3114;48.362;10.994;2023-02-07T11:47:13;1.60;99.90
6164;DHT22;3114;48.362;10.994;2023-02-07T11:49:44;1.60;99.90
6164;DHT22;3114;48.362;10.994;2023-02-07T11:52:12;1.80;99.90
6164;DHT22;3114;48.362;10.994;2023-02-07T11:54:40;2.10;99.90
6164;DHT22;3114;48.362;10.994;2023-02-07T11:57:12;2.00;99.90
6164;DHT22;3114;48.362;10.994;2023-02-07T11:59:45;1.90;99.90
6164;DHT22;3114;48.362;10.994;2023-02-07T12:02:17;1.90;99.90
6164;DHT22;3114;48.362;10.994;2023-02-07T12:04:46;2.00;99.90
6164;DHT22;3114;48.362;10.994;2023-02-07T12:07:18;2.00;99.90
6164;DHT22;3114;48.362;10.994;2023-02-07T12:09:47;2.20;99.90
6164;DHT22;3114;48.362;10.994;2023-02-07T12:12:19;2.40;99.90
6164;DHT22;3114;48.362;10.994;2023-02-07T12:14:51;2.40;99.90
6164;DHT22;3114;48.362;10.994;2023-02-07T12:17:24;2.30;99.90
6164;DHT22;3114;48.362;10.994;2023-02-07T12:19:58;2.30;99.90
6164;DHT22;3114;48.362;10.994;2023-02-07T12:22:33;2.40;99.90
6164;DHT22;3114;48.362;10.994;2023-02-07T12:25:08;2.60;99.90
6164;DHT22;3114;48.362;10.994;2023-02-07T12:27:39;2.90;99.90
6164;DHT22;3114;48.362;10.994;2023-02-07T12:30:14;3.00;99.90
6164;DHT22;3114;48.362;10.994;2023-02-07T12:32:48;3.10;99.90
6164;DHT22;3114;48.362;10.994;2023-02-07T12:35:23;3.30;99.90
6164;DHT22;3114;48.362;10.994;2023-02-07T12:37:56;3.40;99.90
6164;DHT22;3114;48.362;10.994;2023-02-07T12:40:30;3.20;99.90
6164;DHT22;3114;48.362;10.994;2023-02-07T12:43:04;3.00;99.90
6164;DHT22;3114;48.362;10.994;2023-02-07T12:45:46;3.20;99.90
6164;DHT22;3114;48.362;10.994;2023-02-07T12:48:20;3.30;99.90
6164;DHT22;3114;48.362;10.994;2023-02-07T12:51:06;3.60;99.90
6164;DHT22;3114;48.362;10.994;2023-02-07T12:53:45;3.90;99.90
6164;DHT22;3114;48.362;10.994;2023-02-07T12:56:38;4.60;99.90
6164;DHT22;3114;48.362;10.994;2023-02-07T12:59:13;6.00;99.90
6164;DHT22;3114;48.362;10.994;2023-02-07T13:01:44;10.10;99.90
6164;DHT22;3114;48.362;10.994;2023-02-07T13:04:34;11.90;99.90
6164;DHT22;3114;48.362;10.994;2023-02-07T13:07:18;15.50;99.90
6164;DHT22;3114;48.362;10.994;2023-02-07T13:09:57;17.40;99.90
6164;DHT22;3114;48.362;10.994;2023-02-07T13:12:29;18.30;99.90
6164;DHT22;3114;48.362;10.994;2023-02-07T13:15:06;18.40;99.90
6164;DHT22;3114;48.362;10.994;2023-02-07T13:17:47;17.80;99.90
6164;DHT22;3114;48.362;10.994;2023-02-07T13:20:25;17.00;99.90
6164;DHT22;3114;48.362;10.994;2023-02-07T13:22:57;16.70;99.90
6164;DHT22;3114;48.362;10.994;2023-02-07T13:25:27;16.00;99.90
6164;DHT22;3114;48.362;10.994;2023-02-07T13:27:58;16.10;99.90
6164;DHT22;3114;48.362;10.994;2023-02-07T13:30:27;14.70;99.90
6164;DHT22;3114;48.362;10.994;2023-02-07T13:32:57;13.00;99.90
6164;DHT22;3114;48.362;10.994;2023-02-07T13:35:30;14.10;99.90
6164;DHT22;3114;48.362;10.994;2023-02-07T13:38:06;14.20;99.90
6164;DHT22;3114;48.362;10.994;2023-02-07T13:40:41;13.10;99.90
6164;DHT22;3114;48.362;10.994;2023-02-07T13:43:17;12.60;99.90
6164;DHT22;3114;48.362;10.994;2023-02-07T13:45:49;13.60;99.90
6164;DHT22;3114;48.362;10.994;2023-02-07T13:48:24;14.30;99.90
6164;DHT22;3114;48.362;10.994;2023-02-07T13:50:59;15.00;99.90
6164;DHT22;3114;48.362;10.994;2023-02-07T13:53:38;14.80;99.90
6164;DHT22;3114;48.362;10.994;2023-02-07T13:56:10;15.20;99.90
6164;DHT22;3114;48.362;10.994;2023-02-07T13:58:58;15.00;99.90
6164;DHT22;3114;48.362;10.994;2023-02-07T14:01:48;15.10;99.90
6164;DHT22;3114;48.362;10.994;2023-02-07T14:04:16;13.90;99.90
6164;DHT22;3114;48.362;10.994;2023-02-07T14:06:54;12.90;99.90
6164;DHT22;3114;48.362;10.994;2023-02-07T14:09:26;12.30;99.90
6164;DHT22;3114;48.362;10.994;2023-02-07T14:11:57;12.30;99.90
6164;DHT22;3114;48.362;10.994;2023-02-07T14:14:26;12.10;99.90
6164;DHT22;3114;48.362;10.994;2023-02-07T14:19:47;11.20;99.90
6164;DHT22;3114;48.362;10.994;2023-02-07T14:22:16;10.30;99.90
6164;DHT22;3114;48.362;10.994;2023-02-07T14:25:18;9.90;99.90
6164;DHT22;3114;48.362;10.994;2023-02-07T14:28:08;8.80;99.90
6164;DHT22;3114;48.362;10.994;2023-02-07T14:31:00;8.10;99.90
6164;DHT22;3114;48.362;10.994;2023-02-07T14:33:33;7.50;99.90
6164;DHT22;3114;48.362;10.994;2023-02-07T14:36:23;7.20;99.90
6164;DHT22;3114;48.362;10.994;2023-02-07T14:39:05;6.80;99.90
6164;DHT22;3114;48.362;10.994;2023-02-07T14:41:37;6.60;99.90
6164;DHT22;3114;48.362;10.994;2023-02-07T14:44:06;6.50;99.90
6164;DHT22;3114;48.362;10.994;2023-02-07T14:46:36;6.30;99.90
6164;DHT22;3114;48.362;10.994;2023-02-07T14:49:05;6.20;99.90
6164;DHT22;3114;48.362;10.994;2023-02-07T14:51:41;6.20;99.90
6164;DHT22;3114;48.362;10.994;2023-02-07T14:54:15;6.10;99.90
6164;DHT22;3114;48.362;10.994;2023-02-07T14:56:48;6.00;99.90
6164;DHT22;3114;48.362;10.994;2023-02-07T14:59:23;5.90;99.90
6164;DHT22;3114;48.362;10.994;2023-02-07T15:01:50;5.80;99.90
6164;DHT22;3114;48.362;10.994;2023-02-07T15:04:17;5.60;99.90
6164;DHT22;3114;48.362;10.994;2023-02-07T15:06:45;5.50;99.90
6164;DHT22;3114;48.362;10.994;2023-02-07T15:09:23;5.40;99.90
6164;DHT22;3114;48.362;10.994;2023-02-07T15:11:53;5.40;99.90
6164;DHT22;3114;48.362;10.994;2023-02-07T15:14:30;5.30;99.90
6164;DHT22;3114;48.362;10.994;2023-02-07T15:16:59;5.30;99.90
6164;DHT22;3114;48.362;10.994;2023-02-07T15:19:30;5.30;99.90
6164;DHT22;3114;48.362;10.994;2023-02-07T15:21:58;5.30;99.90
6164;DHT22;3114;48.362;10.994;2023-02-07T15:24:28;5.10;99.90
6164;DHT22;3114;48.362;10.994;2023-02-07T15:26:59;5.10;99.90
6164;DHT22;3114;48.362;10.994;2023-02-07T15:29:28;5.00;99.90
6164;DHT22;3114;48.362;10.994;2023-02-07T15:31:56;5.00;99.90
6164;DHT22;3114;48.362;10.994;2023-02-07T15:34:26;4.90;99.90
6164;DHT22;3114;48.362;10.994;2023-02-07T15:36:57;4.90;99.90
6164;DHT22;3114;48.362;10.994;2023-02-07T15:39:26;4.80;99.90
6164;DHT22;3114;48.362;10.994;2023-02-07T15:41:55;4.70;99.90
6164;DHT22;3114;48.362;10.994;2023-02-07T15:44:27;4.70;99.90
6164;DHT22;3114;48.362;10.994;2023-02-07T15:46:56;4.70;99.90
6164;DHT22;3114;48.362;10.994;2023-02-07T15:49:25;4.60;99.90
6164;DHT22;3114;48.362;10.994;2023-02-07T15:51:54;4.50;99.90
6164;DHT22;3114;48.362;10.994;2023-02-07T15:54:23;4.40;99.90
6164;DHT22;3114;48.362;10.994;2023-02-07T15:56:56;4.40;99.90
6164;DHT22;3114;48.362;10.994;2023-02-07T15:59:27;4.40;99.90
6164;DHT22;3114;48.362;10.994;2023-02-07T16:01:57;4.50;99.90
6164;DHT22;3114;48.362;10.994;2023-02-07T16:04:29;4.40;99.90
6164;DHT22;3114;48.362;10.994;2023-02-07T16:06:59;4.30;99.90
6164;DHT22;3114;48.362;10.994;2023-02-07T16:09:38;4.30;99.90
6164;DHT22;3114;48.362;10.994;2023-02-07T16:12:42;4.20;99.90
6164;DHT22;3114;48.362;10.994;2023-02-07T16:15:26;4.20;99.90
6164;DHT22;3114;48.362;10.994;2023-02-07T16:17:54;4.20;99.90
6164;DHT22;3114;48.362;10.994;2023-02-07T16:20:21;4.20;99.90
6164;DHT22;3114;48.362;10.994;2023-02-07T16:22:49;4.10;99.90
6164;DHT22;3114;48.362;10.994;2023-02-07T16:25:18;4.00;99.90
6164;DHT22;3114;48.362;10.994;2023-02-07T16:27:48;3.70;99.90